Terminal Aerodrome Forecast
Issued by NWS Tampa Bay Area, FL

Home | Current Version | Previous Version | Text Only | Print | Product List | Glossary Off
Versions: 1 2 3 4 5 6 7 8 9

793
FTUS42 KTBW 211732
TAFSRQ
TAF
KSRQ 211732Z 2118/2218 14008G18KT P6SM FEW045 FEW250
     FM212000 24009KT P6SM FEW050 SCT250
     FM212300 29007KT P6SM SCT050 BKN250
     FM220200 VRB04KT P6SM FEW050 SCT250
     FM221400 14007KT P6SM SCT035 BKN200
     FM221700 19007KT P6SM SCT035 BKN200=

USA.gov is the U.S. government's official web portal to all federal, state and local government web resources and services.